Time;durP1;ratioP1;P1;durP2;ratioP2;P2;SDS_P1;SDS_P2;PMS_P1;PMS_P2;Temp;Humidity;BMP_temperature;BMP_pressure;BME280_temperature;BME280_humidity;BME280_pressure;Samples;Min_cycle;Max_cycle;Signal;HPM_P1;HPM_P2
2023/10/10 00:01:44;;;;;;;;;;;21.00;58.50;;;;;;10201339;28;94424;-44
2023/10/10 00:06:49;;;;;;;;;;;21.00;58.40;;;;;;10192389;28;96129;-43
2023/10/10 00:11:53;;;;;;;;;;;21.00;58.30;;;;;;10200569;28;95975;-43
2023/10/10 00:16:55;;;;;;;;;;;21.00;58.20;;;;;;10189117;28;94512;-41
2023/10/10 00:21:57;;;;;;;;;;;21.00;58.10;;;;;;10186017;28;94560;-45
2023/10/10 00:27:06;;;;;;;;;;;21.00;58.10;;;;;;10201702;28;94409;-44
2023/10/10 00:32:22;;;;;;;;;;;21.00;58.10;;;;;;10201888;28;93913;-42
2023/10/10 00:37:29;;;;;;;;;;;21.00;58.00;;;;;;10188866;28;97044;-41
2023/10/10 00:42:38;;;;;;;;;;;21.00;57.90;;;;;;10205690;28;93896;-42
2023/10/10 00:47:50;;;;;;;;;;;21.00;57.80;;;;;;10203107;28;94620;-42
2023/10/10 00:52:55;;;;;;;;;;;21.00;57.80;;;;;;10195831;28;94409;-45
2023/10/10 00:57:58;;;;;;;;;;;21.00;57.70;;;;;;10197014;28;94547;-41
2023/10/10 01:03:19;;;;;;;;;;;21.00;57.60;;;;;;10667391;22;95156;-51
2023/10/10 01:08:30;;;;;;;;;;;21.00;57.60;;;;;;10158353;28;94641;-46
2023/10/10 01:13:33;;;;;;;;;;;21.00;57.60;;;;;;10190901;28;92522;-43
2023/10/10 01:18:39;;;;;;;;;;;21.00;57.40;;;;;;10204785;28;93757;-43
2023/10/10 01:23:45;;;;;;;;;;;21.00;57.40;;;;;;10225788;28;94626;-45
2023/10/10 01:28:47;;;;;;;;;;;21.00;57.40;;;;;;10198356;28;96855;-45
2023/10/10 01:33:49;;;;;;;;;;;21.00;57.20;;;;;;10200415;28;93875;-44
2023/10/10 01:38:59;;;;;;;;;;;21.00;57.10;;;;;;10205938;28;93960;-45
2023/10/10 01:44:17;;;;;;;;;;;21.00;57.10;;;;;;10199095;28;94045;-43
2023/10/10 01:49:21;;;;;;;;;;;21.00;57.00;;;;;;10196500;28;93502;-44
2023/10/10 01:54:34;;;;;;;;;;;21.10;57.00;;;;;;10195897;28;93437;-42
2023/10/10 01:59:38;;;;;;;;;;;21.10;57.00;;;;;;10197172;28;93373;-42
2023/10/10 02:04:41;;;;;;;;;;;21.10;56.80;;;;;;10204972;28;93597;-42
2023/10/10 02:09:53;;;;;;;;;;;21.00;56.80;;;;;;10186492;28;94246;-46
2023/10/10 02:14:54;;;;;;;;;;;21.00;56.70;;;;;;10196939;28;94629;-42
2023/10/10 02:19:59;;;;;;;;;;;21.00;56.60;;;;;;10181530;28;97366;-47
2023/10/10 02:30:34;;;;;;;;;;;21.00;56.50;;;;;;10203307;28;93468;-47
2023/10/10 02:35:47;;;;;;;;;;;21.00;56.50;;;;;;10190982;28;94634;-45
2023/10/10 02:40:53;;;;;;;;;;;21.00;56.50;;;;;;10204927;28;94482;-42
2023/10/10 02:45:57;;;;;;;;;;;21.00;56.40;;;;;;10212815;28;94630;-47
2023/10/10 02:51:03;;;;;;;;;;;21.00;56.50;;;;;;10192399;28;94665;-42
2023/10/10 02:56:09;;;;;;;;;;;21.00;56.40;;;;;;10194814;28;93412;-43
2023/10/10 03:01:50;;;;;;;;;;;21.00;56.30;;;;;;10183767;28;94642;-43
2023/10/10 03:06:33;;;;;;;;;;;21.00;56.30;;;;;;10190519;28;94526;-43
2023/10/10 03:11:35;;;;;;;;;;;21.00;56.30;;;;;;10186263;28;96689;-44
2023/10/10 03:16:59;;;;;;;;;;;20.90;56.10;;;;;;10196263;28;94638;-43
2023/10/10 03:27:50;;;;;;;;;;;20.90;56.10;;;;;;10216372;28;93813;-43
2023/10/10 03:33:11;;;;;;;;;;;20.90;56.00;;;;;;10201609;28;92588;-47
2023/10/10 03:38:26;;;;;;;;;;;20.90;55.90;;;;;;10184926;28;93988;-44
2023/10/10 05:25:15;;;;;;;;;;;21.00;55.40;;;;;;10196189;28;93425;-45
2023/10/10 05:30:23;;;;;;;;;;;21.00;55.90;;;;;;10198395;28;94098;-54
2023/10/10 05:35:27;;;;;;;;;;;21.00;58.40;;;;;;10192872;28;92791;-44
2023/10/10 05:40:33;;;;;;;;;;;20.90;59.10;;;;;;10199700;28;94853;-44
2023/10/10 05:45:38;;;;;;;;;;;20.90;59.40;;;;;;10200377;28;93198;-44
2023/10/10 05:50:42;;;;;;;;;;;20.90;59.30;;;;;;10199801;28;96800;-47
2023/10/10 05:55:50;;;;;;;;;;;20.80;60.40;;;;;;10171669;28;94688;-47
2023/10/10 06:00:54;;;;;;;;;;;20.90;61.40;;;;;;10199038;28;93469;-47
2023/10/10 06:05:56;;;;;;;;;;;20.90;61.60;;;;;;10187488;28;93846;-45
2023/10/10 06:10:59;;;;;;;;;;;20.90;62.70;;;;;;10201491;28;94431;-53
2023/10/10 06:16:08;;;;;;;;;;;20.80;62.40;;;;;;10191332;28;93816;-51
2023/10/10 06:21:11;;;;;;;;;;;20.80;62.10;;;;;;10204364;28;93131;-49
2023/10/10 06:26:13;;;;;;;;;;;20.80;64.00;;;;;;10205499;28;93168;-52
2023/10/10 06:31:19;;;;;;;;;;;20.80;63.30;;;;;;10207558;28;93393;-49
2023/10/10 06:41:27;;;;;;;;;;;20.90;65.20;;;;;;10200415;28;95085;-50
2023/10/10 06:46:32;;;;;;;;;;;20.90;65.30;;;;;;10200663;28;93179;-47
2023/10/10 06:51:39;;;;;;;;;;;20.90;64.90;;;;;;10197038;28;93890;-51
2023/10/10 06:56:44;;;;;;;;;;;20.90;65.60;;;;;;10208702;28;93740;-49
2023/10/10 07:01:46;;;;;;;;;;;20.80;65.70;;;;;;10199380;28;93565;-50
2023/10/10 07:06:50;;;;;;;;;;;20.80;66.30;;;;;;10197954;28;93770;-46
2023/10/10 07:11:52;;;;;;;;;;;20.80;66.40;;;;;;10202628;28;94465;-50
2023/10/10 07:16:57;;;;;;;;;;;20.80;66.40;;;;;;10200444;28;93651;-44
2023/10/10 07:22:03;;;;;;;;;;;20.80;66.20;;;;;;10185339;28;94536;-42
2023/10/10 07:27:11;;;;;;;;;;;20.80;66.90;;;;;;10195415;28;94103;-52
2023/10/10 07:32:17;;;;;;;;;;;20.80;69.10;;;;;;10170464;28;95279;-59
2023/10/10 07:37:19;;;;;;;;;;;20.80;68.70;;;;;;10193991;28;93445;-43
2023/10/10 07:42:27;;;;;;;;;;;20.80;68.20;;;;;;10185993;28;94996;-45
2023/10/10 07:48:20;;;;;;;;;;;20.80;68.20;;;;;;10176375;28;92942;-45
2023/10/10 07:52:56;;;;;;;;;;;20.90;68.20;;;;;;10189571;28;94495;-43
2023/10/10 07:58:01;;;;;;;;;;;20.80;67.90;;;;;;10200141;28;93470;-44
2023/10/10 08:03:03;;;;;;;;;;;20.80;67.60;;;;;;10191424;28;93509;-42
2023/10/10 08:08:05;;;;;;;;;;;20.90;67.40;;;;;;10191629;28;93684;-42
2023/10/10 08:13:10;;;;;;;;;;;20.90;67.40;;;;;;10174654;28;93663;-46
2023/10/10 08:18:12;;;;;;;;;;;20.80;67.10;;;;;;10193715;28;94849;-44
2023/10/10 08:23:14;;;;;;;;;;;20.90;67.20;;;;;;10175303;28;95912;-43
2023/10/10 08:28:16;;;;;;;;;;;20.90;67.00;;;;;;10187320;28;94346;-46
2023/10/10 08:33:18;;;;;;;;;;;20.90;67.00;;;;;;10200513;28;94474;-44
2023/10/10 08:38:20;;;;;;;;;;;20.90;66.80;;;;;;10182313;28;93462;-44
2023/10/10 08:43:26;;;;;;;;;;;20.90;66.80;;;;;;10204027;28;94800;-43
2023/10/10 08:48:28;;;;;;;;;;;20.90;67.70;;;;;;10201393;28;95168;-46
2023/10/10 08:53:35;;;;;;;;;;;20.90;66.70;;;;;;10193447;28;94444;-46
2023/10/10 08:58:37;;;;;;;;;;;20.90;66.60;;;;;;10197014;28;92703;-47
2023/10/10 09:03:44;;;;;;;;;;;20.90;66.60;;;;;;10189272;28;93120;-44
2023/10/10 09:08:49;;;;;;;;;;;20.90;67.50;;;;;;10191194;28;94412;-47
2023/10/10 09:13:52;;;;;;;;;;;20.90;66.40;;;;;;10185531;28;97425;-47
2023/10/10 09:19:08;;;;;;;;;;;20.90;66.30;;;;;;10188345;28;94586;-42
2023/10/10 09:24:27;;;;;;;;;;;21.00;66.30;;;;;;10197539;28;93612;-44
2023/10/10 09:29:32;;;;;;;;;;;21.00;66.10;;;;;;10201107;28;94491;-44
2023/10/10 09:34:40;;;;;;;;;;;21.00;65.70;;;;;;10201255;28;93669;-44
2023/10/10 09:39:54;;;;;;;;;;;21.10;65.70;;;;;;10208586;28;93846;-46
2023/10/10 09:45:18;;;;;;;;;;;21.10;65.70;;;;;;10166073;28;94439;-45
2023/10/10 10:05:42;;;;;;;;;;;21.30;65.20;;;;;;10202281;28;95884;-43
2023/10/10 10:10:57;;;;;;;;;;;21.30;65.10;;;;;;10167667;28;93790;-43
2023/10/10 10:16:09;;;;;;;;;;;21.30;65.00;;;;;;10196498;28;94411;-45
2023/10/10 10:21:18;;;;;;;;;;;21.30;64.80;;;;;;10191321;28;94740;-43
2023/10/10 10:26:31;;;;;;;;;;;21.30;65.10;;;;;;10202661;28;93588;-45
2023/10/10 10:31:36;;;;;;;;;;;21.30;65.10;;;;;;10196025;28;94207;-45
2023/10/10 10:36:42;;;;;;;;;;;21.30;65.00;;;;;;10203318;28;93850;-44
2023/10/10 10:41:51;;;;;;;;;;;21.30;64.50;;;;;;10166268;28;93790;-44
2023/10/10 10:46:56;;;;;;;;;;;21.30;64.40;;;;;;10175656;28;94665;-48
2023/10/10 10:57:27;;;;;;;;;;;21.40;63.60;;;;;;10191859;28;96830;-42
2023/10/10 11:02:55;;;;;;;;;;;21.40;63.30;;;;;;10201195;28;96101;-43
2023/10/10 11:08:11;;;;;;;;;;;21.40;62.90;;;;;;10191381;28;94231;-45
2023/10/10 11:13:14;;;;;;;;;;;21.50;62.80;;;;;;10181103;28;94570;-47
2023/10/10 11:18:34;;;;;;;;;;;21.50;62.40;;;;;;10180372;28;113927;-47
2023/10/10 11:23:43;;;;;;;;;;;21.50;62.10;;;;;;10205182;28;94350;-48
2023/10/10 11:28:47;;;;;;;;;;;21.50;61.80;;;;;;10195277;28;93463;-43
2023/10/10 11:34:09;;;;;;;;;;;21.60;61.60;;;;;;10197605;28;93971;-44
2023/10/10 11:39:57;;;;;;;;;;;21.60;61.40;;;;;;10208141;28;94698;-48
2023/10/10 11:45:00;;;;;;;;;;;21.60;60.80;;;;;;10176676;28;95537;-48
2023/10/10 11:50:05;;;;;;;;;;;21.60;61.70;;;;;;10193247;28;96838;-44
2023/10/10 11:55:08;;;;;;;;;;;21.60;60.60;;;;;;10190467;28;94487;-45
2023/10/10 12:00:11;;;;;;;;;;;21.60;60.50;;;;;;10189642;28;93478;-44
2023/10/10 12:10:52;;;;;;;;;;;21.50;60.20;;;;;;10190771;28;93451;-46
2023/10/10 12:15:55;;;;;;;;;;;21.50;60.10;;;;;;10201448;28;94482;-49
2023/10/10 12:21:03;;;;;;;;;;;21.50;60.00;;;;;;10203637;28;94353;-44
2023/10/10 12:26:05;;;;;;;;;;;21.50;60.00;;;;;;10183640;28;93130;-45
2023/10/10 12:31:15;;;;;;;;;;;21.50;59.90;;;;;;10217878;28;93451;-46
2023/10/10 12:36:17;;;;;;;;;;;21.50;59.80;;;;;;10193672;28;94323;-44
2023/10/10 12:41:22;;;;;;;;;;;21.50;59.60;;;;;;10200016;28;95785;-43
2023/10/10 12:46:24;;;;;;;;;;;21.50;59.50;;;;;;10193348;28;94827;-43
2023/10/10 12:51:30;;;;;;;;;;;21.50;59.40;;;;;;10199330;28;93585;-44
2023/10/10 12:56:48;;;;;;;;;;;21.50;59.50;;;;;;10203601;28;94534;-47
2023/10/10 13:01:55;;;;;;;;;;;21.50;59.20;;;;;;10204002;28;93569;-42
2023/10/10 13:07:04;;;;;;;;;;;21.50;59.20;;;;;;10200005;28;94163;-45
2023/10/10 13:12:07;;;;;;;;;;;21.50;59.20;;;;;;10205726;28;93535;-43
2023/10/10 13:22:29;;;;;;;;;;;21.40;59.10;;;;;;10204690;28;94485;-44
2023/10/10 13:27:31;;;;;;;;;;;21.40;58.90;;;;;;10217666;28;93542;-43
2023/10/10 13:32:33;;;;;;;;;;;21.40;58.80;;;;;;10203933;28;96855;-44
2023/10/10 13:37:40;;;;;;;;;;;21.40;58.80;;;;;;10197089;28;94554;-46
2023/10/10 13:42:42;;;;;;;;;;;21.40;58.80;;;;;;10205599;28;93440;-44
2023/10/10 13:47:48;;;;;;;;;;;21.40;58.80;;;;;;10191430;28;93492;-44
2023/10/10 13:52:50;;;;;;;;;;;21.50;58.80;;;;;;10185284;28;93892;-44
2023/10/10 13:57:53;;;;;;;;;;;21.50;58.70;;;;;;10174124;28;93465;-45
2023/10/10 14:03:04;;;;;;;;;;;21.50;58.50;;;;;;10202869;28;94627;-44
2023/10/10 14:08:17;;;;;;;;;;;21.50;58.70;;;;;;10178391;28;93960;-47
2023/10/10 14:13:20;;;;;;;;;;;21.50;58.60;;;;;;10198336;28;93978;-43
2023/10/10 14:18:23;;;;;;;;;;;21.50;58.50;;;;;;10200472;28;94459;-46
2023/10/10 14:23:25;;;;;;;;;;;21.50;58.40;;;;;;10191992;28;97438;-46
2023/10/10 14:28:28;;;;;;;;;;;21.50;58.60;;;;;;10199885;28;93466;-44
2023/10/10 14:33:30;;;;;;;;;;;21.50;58.40;;;;;;10185514;28;93979;-45
2023/10/10 14:38:32;;;;;;;;;;;21.50;58.20;;;;;;10195333;28;94088;-42
2023/10/10 14:43:34;;;;;;;;;;;21.50;58.20;;;;;;10200847;28;94446;-49
2023/10/10 14:48:36;;;;;;;;;;;21.50;58.00;;;;;;10182447;28;93938;-43
2023/10/10 14:53:40;;;;;;;;;;;21.50;58.00;;;;;;10200256;28;94577;-43
2023/10/10 14:58:42;;;;;;;;;;;21.50;57.80;;;;;;10191417;28;92693;-45
2023/10/10 15:03:44;;;;;;;;;;;21.50;57.70;;;;;;10174551;28;93781;-50
2023/10/10 15:08:46;;;;;;;;;;;21.50;57.60;;;;;;10185002;28;94271;-43
2023/10/10 15:13:48;;;;;;;;;;;21.50;57.60;;;;;;10175823;28;97540;-40
2023/10/10 15:18:53;;;;;;;;;;;21.50;57.40;;;;;;10177049;28;93462;-41
2023/10/10 15:23:55;;;;;;;;;;;21.50;57.40;;;;;;10192424;28;94594;-42
2023/10/10 15:28:57;;;;;;;;;;;21.50;57.30;;;;;;10176929;28;94510;-55
2023/10/10 15:33:59;;;;;;;;;;;21.50;57.30;;;;;;10190755;28;94423;-42
2023/10/10 15:39:04;;;;;;;;;;;21.50;57.40;;;;;;10192062;28;94617;-45
2023/10/10 15:44:08;;;;;;;;;;;21.50;57.30;;;;;;10175809;28;95114;-46
2023/10/10 15:49:12;;;;;;;;;;;21.50;57.30;;;;;;10195172;28;92923;-43
2023/10/10 15:54:17;;;;;;;;;;;21.50;57.90;;;;;;10189776;28;93869;-43
2023/10/10 15:59:18;;;;;;;;;;;21.60;58.20;;;;;;10196921;28;93462;-43
2023/10/10 16:04:23;;;;;;;;;;;21.60;58.50;;;;;;10191533;28;96939;-44
2023/10/10 16:09:31;;;;;;;;;;;21.70;58.40;;;;;;10194550;28;95919;-46
2023/10/10 16:14:36;;;;;;;;;;;21.90;60.40;;;;;;10189557;28;94689;-44
2023/10/10 16:19:42;;;;;;;;;;;22.20;62.60;;;;;;10187912;28;94505;-45
2023/10/10 16:24:44;;;;;;;;;;;22.50;63.60;;;;;;10175462;28;93444;-45
2023/10/10 16:29:46;;;;;;;;;;;22.70;65.10;;;;;;10183927;28;94534;-45
2023/10/10 16:34:48;;;;;;;;;;;23.00;68.20;;;;;;10169029;28;93557;-43
2023/10/10 16:39:50;;;;;;;;;;;23.20;66.20;;;;;;10184060;28;93932;-47
2023/10/10 16:44:53;;;;;;;;;;;23.40;64.30;;;;;;10201441;28;94526;-46
2023/10/10 16:49:55;;;;;;;;;;;23.30;64.20;;;;;;10174529;28;93491;-45
2023/10/10 16:54:57;;;;;;;;;;;23.20;64.30;;;;;;10180002;28;96429;-45
2023/10/10 16:59:59;;;;;;;;;;;23.10;64.40;;;;;;10185591;28;94483;-46
2023/10/10 17:05:04;;;;;;;;;;;23.00;64.40;;;;;;10191457;28;94636;-45
2023/10/10 17:10:18;;;;;;;;;;;23.00;64.40;;;;;;10196514;28;94844;-42
2023/10/10 17:15:20;;;;;;;;;;;22.90;64.50;;;;;;10195455;28;96165;-42
2023/10/10 17:20:22;;;;;;;;;;;22.80;64.50;;;;;;10184251;28;94431;-45
2023/10/10 17:25:24;;;;;;;;;;;22.80;65.10;;;;;;10156265;28;95897;-43
2023/10/10 17:30:27;;;;;;;;;;;22.70;64.90;;;;;;10198705;28;93044;-45
2023/10/10 17:35:32;;;;;;;;;;;22.60;64.90;;;;;;10194229;28;93473;-44
2023/10/10 17:40:39;;;;;;;;;;;22.60;64.90;;;;;;10194465;28;93739;-47
2023/10/10 17:45:42;;;;;;;;;;;22.50;64.90;;;;;;10200371;28;96611;-50
2023/10/10 17:50:44;;;;;;;;;;;22.50;65.00;;;;;;10191883;28;95646;-52
2023/10/10 17:55:49;;;;;;;;;;;22.40;65.10;;;;;;10187961;28;94161;-49
2023/10/10 18:00:52;;;;;;;;;;;22.40;65.10;;;;;;10190705;28;94430;-50
2023/10/10 18:05:54;;;;;;;;;;;22.30;65.10;;;;;;10189155;28;93692;-46
2023/10/10 18:11:03;;;;;;;;;;;22.30;65.10;;;;;;10200677;28;94203;-51
2023/10/10 18:16:09;;;;;;;;;;;22.30;65.00;;;;;;10190291;28;93471;-49
2023/10/10 18:21:11;;;;;;;;;;;22.20;65.00;;;;;;10195156;28;93777;-48
2023/10/10 18:26:17;;;;;;;;;;;22.20;65.00;;;;;;10206934;28;94525;-49
2023/10/10 18:31:23;;;;;;;;;;;22.10;64.90;;;;;;10200914;28;93544;-52
2023/10/10 18:36:25;;;;;;;;;;;22.10;64.90;;;;;;10197002;28;95892;-48
2023/10/10 18:41:29;;;;;;;;;;;22.00;64.90;;;;;;10196797;28;93448;-51
2023/10/10 18:46:32;;;;;;;;;;;22.00;64.90;;;;;;10197232;28;93275;-46
2023/10/10 18:51:35;;;;;;;;;;;22.00;64.90;;;;;;10193294;28;93402;-48
2023/10/10 18:56:37;;;;;;;;;;;21.90;64.80;;;;;;10196291;28;94532;-50
2023/10/10 19:01:44;;;;;;;;;;;21.90;64.80;;;;;;10189453;28;94592;-47
2023/10/10 19:06:49;;;;;;;;;;;21.90;64.80;;;;;;10192971;28;94457;-49
2023/10/10 19:11:57;;;;;;;;;;;21.80;64.80;;;;;;10193267;28;93749;-50
2023/10/10 19:16:59;;;;;;;;;;;21.80;64.80;;;;;;10179478;28;94597;-47
2023/10/10 19:22:04;;;;;;;;;;;21.80;64.80;;;;;;10176150;28;94811;-48
2023/10/10 19:27:10;;;;;;;;;;;21.80;64.80;;;;;;10198346;28;96045;-46
2023/10/10 19:32:13;;;;;;;;;;;21.70;64.70;;;;;;10180806;28;94850;-51
2023/10/10 19:37:18;;;;;;;;;;;21.70;66.00;;;;;;10165644;28;94500;-49
2023/10/10 19:42:21;;;;;;;;;;;21.80;65.00;;;;;;10192020;28;95330;-46
2023/10/10 19:47:26;;;;;;;;;;;21.80;64.90;;;;;;10198714;28;93471;-51
2023/10/10 19:52:28;;;;;;;;;;;21.80;65.00;;;;;;10193154;28;94537;-49
2023/10/10 19:57:29;;;;;;;;;;;21.70;65.30;;;;;;10185774;28;93470;-49
2023/10/10 20:02:31;;;;;;;;;;;21.70;65.30;;;;;;10171725;28;92961;-51
2023/10/10 20:07:36;;;;;;;;;;;21.70;65.50;;;;;;10160130;28;93117;-51
2023/10/10 20:12:38;;;;;;;;;;;21.70;65.50;;;;;;10189994;28;93480;-48
2023/10/10 20:17:41;;;;;;;;;;;21.70;65.60;;;;;;10190455;28;97226;-47
2023/10/10 20:22:46;;;;;;;;;;;21.70;65.70;;;;;;10190167;28;93610;-52
2023/10/10 20:27:48;;;;;;;;;;;21.70;65.70;;;;;;10185866;28;93511;-49
2023/10/10 20:32:51;;;;;;;;;;;21.70;65.80;;;;;;10194122;28;93322;-53
2023/10/10 20:37:56;;;;;;;;;;;21.70;65.80;;;;;;10186039;28;93281;-50
2023/10/10 20:43:01;;;;;;;;;;;21.70;65.90;;;;;;10192106;28;93737;-53
2023/10/10 20:48:08;;;;;;;;;;;21.80;65.40;;;;;;10192839;28;93518;-50
2023/10/10 20:53:11;;;;;;;;;;;21.80;64.80;;;;;;10196225;28;92559;-49
2023/10/10 20:58:14;;;;;;;;;;;21.80;64.10;;;;;;10176570;28;94345;-47
2023/10/10 21:03:16;;;;;;;;;;;21.80;63.70;;;;;;10195744;28;94774;-47
2023/10/10 21:08:18;;;;;;;;;;;21.80;63.10;;;;;;10188076;28;95929;-50
2023/10/10 21:13:21;;;;;;;;;;;21.80;62.80;;;;;;10193686;28;94426;-49
2023/10/10 21:18:23;;;;;;;;;;;21.80;62.30;;;;;;10199374;28;93390;-48
2023/10/10 21:23:25;;;;;;;;;;;21.80;61.90;;;;;;10199176;28;94501;-52
2023/10/10 21:28:27;;;;;;;;;;;21.80;61.70;;;;;;10209493;28;94350;-50
2023/10/10 21:33:29;;;;;;;;;;;21.80;61.20;;;;;;10183249;28;94033;-51
2023/10/10 21:38:34;;;;;;;;;;;21.80;60.90;;;;;;10193519;28;94434;-48
2023/10/10 21:43:37;;;;;;;;;;;21.80;60.60;;;;;;10200102;28;93802;-49
2023/10/10 21:48:39;;;;;;;;;;;21.80;60.40;;;;;;10176369;28;93482;-48
2023/10/10 21:53:41;;;;;;;;;;;21.80;60.10;;;;;;10203963;28;94729;-50
2023/10/10 21:58:43;;;;;;;;;;;21.80;59.80;;;;;;10201697;28;95852;-50
2023/10/10 22:03:46;;;;;;;;;;;21.70;59.60;;;;;;10204280;28;93377;-51
2023/10/10 22:08:48;;;;;;;;;;;21.70;59.50;;;;;;10202425;28;94436;-51
2023/10/10 22:13:50;;;;;;;;;;;21.70;59.30;;;;;;10201979;28;94326;-52
2023/10/10 22:18:52;;;;;;;;;;;21.70;59.10;;;;;;10174940;28;94432;-49
2023/10/10 22:23:55;;;;;;;;;;;21.70;59.00;;;;;;10196815;28;93520;-51
2023/10/10 22:28:57;;;;;;;;;;;21.70;58.80;;;;;;10189858;28;94638;-51
2023/10/10 22:33:59;;;;;;;;;;;21.70;58.70;;;;;;10185500;28;93588;-52
2023/10/10 22:39:06;;;;;;;;;;;21.70;58.60;;;;;;10195479;28;94224;-50
2023/10/10 22:44:08;;;;;;;;;;;21.70;58.40;;;;;;10197541;28;93853;-49
2023/10/10 22:49:10;;;;;;;;;;;21.70;58.30;;;;;;10197511;28;96796;-48
2023/10/10 22:54:12;;;;;;;;;;;21.70;58.20;;;;;;10163472;28;94733;-46
2023/10/10 22:59:15;;;;;;;;;;;21.60;58.00;;;;;;10188658;28;94247;-49
2023/10/10 23:04:17;;;;;;;;;;;21.60;58.00;;;;;;10187589;28;93470;-45
2023/10/10 23:09:19;;;;;;;;;;;21.60;57.90;;;;;;10182685;28;93432;-47
2023/10/10 23:14:21;;;;;;;;;;;21.60;57.90;;;;;;10188484;28;93836;-48
2023/10/10 23:19:23;;;;;;;;;;;21.60;57.90;;;;;;10168808;28;93617;-51
2023/10/10 23:24:24;;;;;;;;;;;21.60;57.60;;;;;;10181660;28;93787;-48
2023/10/10 23:29:26;;;;;;;;;;;21.60;57.60;;;;;;10194575;28;94607;-51
2023/10/10 23:34:29;;;;;;;;;;;21.60;57.60;;;;;;10191317;28;94621;-50
2023/10/10 23:39:34;;;;;;;;;;;21.50;57.30;;;;;;10194661;28;95847;-50
2023/10/10 23:44:41;;;;;;;;;;;21.50;57.40;;;;;;10199012;28;93028;-46
2023/10/10 23:49:45;;;;;;;;;;;21.50;57.30;;;;;;10173918;28;93564;-50
2023/10/10 23:54:48;;;;;;;;;;;21.50;57.20;;;;;;10193290;28;94814;-48
2023/10/10 23:59:51;;;;;;;;;;;21.60;57.20;;;;;;10195566;28;93432;-50
